Terminal Aerodrome Forecast
Issued by NWS

Home | Current Version | Previous Version | Text Only | Print | Product List | Glossary On
Versions: 1 2 3 4 5 6 7 8 9 10 11 12 13 14 15 16 17 18 19 20 21 22 23 24 25 26 27 28 29
418
FTUS44 KLZK 181721
TAFHRO
TAF
KHRO 181721Z 1818/1918 26009KT P6SM SKC
     FM182200 21007KT P6SM FEW250
     FM190900 23006KT 4SM BR OVC007=

USA.gov is the U.S. government's official web portal to all federal, state and local government web resources and services.